Time;durP1;ratioP1;P1;durP2;ratioP2;P2;SDS_P1;SDS_P2;PMS_P1;PMS_P2;Temp;Humidity;BMP_temperature;BMP_pressure;BME280_temperature;BME280_humidity;BME280_pressure;Samples;Min_cycle;Max_cycle;Signal;HPM_P1;HPM_P2
2022/12/01 00:00:36;;;;;;;24.60;15.43;;;;;;;;;;5014536;28;20214;-69
2022/12/01 00:03:03;;;;;;;22.38;14.07;;;;;;;;;;5020136;28;20556;-69
2022/12/01 00:05:30;;;;;;;23.50;14.70;;;;;;;;;;5036333;28;20517;-69
2022/12/01 00:07:58;;;;;;;23.55;14.77;;;;;;;;;;5039904;28;20194;-69
2022/12/01 00:10:26;;;;;;;25.88;15.65;;;;;;;;;;5040205;28;20243;-69
2022/12/01 00:12:54;;;;;;;24.80;15.23;;;;;;;;;;5040284;28;20551;-69
2022/12/01 00:15:20;;;;;;;23.48;14.93;;;;;;;;;;5040522;28;20197;-69
2022/12/01 00:17:47;;;;;;;26.17;15.82;;;;;;;;;;5039751;28;20392;-69
2022/12/01 00:20:13;;;;;;;23.23;14.77;;;;;;;;;;5039942;28;20205;-70
2022/12/01 00:22:41;;;;;;;26.00;15.43;;;;;;;;;;5039615;28;20218;-70
2022/12/01 00:25:08;;;;;;;24.85;15.77;;;;;;;;;;5039933;28;20198;-69
2022/12/01 00:30:38;;;;;;;24.88;15.32;;;;;;;;;;5038637;28;20484;-69
2022/12/01 00:33:04;;;;;;;26.80;15.98;;;;;;;;;;5039754;28;20194;-69
2022/12/01 00:35:31;;;;;;;24.95;15.68;;;;;;;;;;5039793;28;20278;-69
2022/12/01 00:37:57;;;;;;;25.20;15.95;;;;;;;;;;5039618;28;20197;-69
2022/12/01 00:40:23;;;;;;;26.17;15.48;;;;;;;;;;5039813;28;20505;-69
2022/12/01 00:42:50;;;;;;;27.48;15.73;;;;;;;;;;5039414;28;20226;-69
2022/12/01 00:45:16;;;;;;;25.08;15.57;;;;;;;;;;5039477;28;20505;-69
2022/12/01 00:47:44;;;;;;;24.98;15.52;;;;;;;;;;5039410;28;20197;-69
2022/12/01 00:50:10;;;;;;;25.55;15.88;;;;;;;;;;5039728;28;20385;-69
2022/12/01 00:52:37;;;;;;;24.20;15.38;;;;;;;;;;5039332;28;20200;-69
2022/12/01 00:55:03;;;;;;;27.33;16.42;;;;;;;;;;5039462;28;20213;-69
2022/12/01 00:57:30;;;;;;;24.55;15.63;;;;;;;;;;5039646;28;20235;-69
2022/12/01 00:59:56;;;;;;;22.92;15.52;;;;;;;;;;5039188;28;20204;-69
2022/12/01 01:02:23;;;;;;;22.05;15.38;;;;;;;;;;5039462;28;20425;-69
2022/12/01 01:04:50;;;;;;;26.08;15.82;;;;;;;;;;5039253;28;20197;-69
2022/12/01 01:07:16;;;;;;;26.73;15.38;;;;;;;;;;5039296;28;20194;-69
2022/12/01 01:09:43;;;;;;;25.20;15.00;;;;;;;;;;5039142;28;20505;-69
2022/12/01 01:12:09;;;;;;;25.02;15.68;;;;;;;;;;5039739;28;20194;-69
2022/12/01 01:14:35;;;;;;;26.55;17.10;;;;;;;;;;5039632;28;20198;-69
2022/12/01 01:17:02;;;;;;;24.02;15.52;;;;;;;;;;5039145;28;20198;-69
2022/12/01 01:19:28;;;;;;;24.70;15.98;;;;;;;;;;5038976;28;20205;-69
2022/12/01 01:21:56;;;;;;;23.20;14.88;;;;;;;;;;5039261;28;20221;-69
2022/12/01 01:24:22;;;;;;;29.45;16.85;;;;;;;;;;5039411;28;20205;-69
2022/12/01 01:26:48;;;;;;;25.52;15.80;;;;;;;;;;5038794;28;20525;-69
2022/12/01 01:29:14;;;;;;;25.30;15.80;;;;;;;;;;5038957;28;20220;-69
2022/12/01 01:31:41;;;;;;;24.85;15.77;;;;;;;;;;5038876;28;20202;-69
2022/12/01 01:34:07;;;;;;;24.23;16.05;;;;;;;;;;5038964;28;20206;-69
2022/12/01 01:36:33;;;;;;;27.65;16.25;;;;;;;;;;5039309;28;20397;-69
2022/12/01 01:39:02;;;;;;;24.83;16.02;;;;;;;;;;5038756;28;20198;-69
2022/12/01 01:41:28;;;;;;;26.15;17.48;;;;;;;;;;5039490;28;20204;-69
2022/12/01 01:43:56;;;;;;;25.33;15.77;;;;;;;;;;5042395;28;20317;-69
2022/12/01 01:46:23;;;;;;;25.50;16.45;;;;;;;;;;5042615;27;20465;-69
2022/12/01 01:48:51;;;;;;;23.45;15.98;;;;;;;;;;5042094;28;20198;-69
2022/12/01 01:51:20;;;;;;;24.27;16.05;;;;;;;;;;5042144;28;20206;-69
2022/12/01 01:53:46;;;;;;;23.58;15.30;;;;;;;;;;5042055;28;20202;-69
2022/12/01 01:56:14;;;;;;;26.02;15.13;;;;;;;;;;5042299;28;20220;-69
2022/12/01 01:58:41;;;;;;;27.25;16.10;;;;;;;;;;5042146;28;20204;-69
2022/12/01 02:01:07;;;;;;;24.25;15.90;;;;;;;;;;5042284;28;20204;-69
2022/12/01 02:03:35;;;;;;;25.05;15.88;;;;;;;;;;5042236;27;20250;-69
2022/12/01 02:06:01;;;;;;;25.98;16.70;;;;;;;;;;5042225;28;20214;-69
2022/12/01 02:08:28;;;;;;;23.42;16.02;;;;;;;;;;5041679;28;20198;-69
2022/12/01 02:11:10;;;;;;;30.15;16.45;;;;;;;;;;5042140;28;20220;-69
2022/12/01 02:13:43;;;;;;;27.40;16.63;;;;;;;;;;5041918;28;20194;-69
2022/12/01 02:16:12;;;;;;;25.25;15.80;;;;;;;;;;5041974;28;20417;-69
2022/12/01 02:18:45;;;;;;;27.05;16.42;;;;;;;;;;5041900;28;20205;-69
2022/12/01 02:21:23;;;;;;;25.08;15.55;;;;;;;;;;5041953;27;20276;-69
2022/12/01 02:24:04;;;;;;;23.80;15.57;;;;;;;;;;5041879;28;20467;-69
2022/12/01 02:26:36;;;;;;;24.83;15.98;;;;;;;;;;5041859;28;20198;-69
2022/12/01 02:29:11;;;;;;;30.65;16.45;;;;;;;;;;5041932;28;20309;-69
2022/12/01 02:31:42;;;;;;;25.77;15.35;;;;;;;;;;5042110;28;20512;-70
2022/12/01 02:34:11;;;;;;;26.67;16.55;;;;;;;;;;5042105;28;20198;-70
2022/12/01 02:36:41;;;;;;;23.35;15.55;;;;;;;;;;5041671;28;20198;-70
2022/12/01 02:39:10;;;;;;;24.08;14.85;;;;;;;;;;5041369;28;20440;-70
2022/12/01 02:41:39;;;;;;;27.00;16.10;;;;;;;;;;5041465;28;20198;-69
2022/12/01 02:44:08;;;;;;;24.45;15.70;;;;;;;;;;5041520;28;20194;-69
2022/12/01 02:46:37;;;;;;;24.58;15.38;;;;;;;;;;5041878;28;20206;-69
2022/12/01 02:49:09;;;;;;;23.60;15.40;;;;;;;;;;5041256;28;20212;-69
2022/12/01 02:51:37;;;;;;;24.95;14.68;;;;;;;;;;5041483;28;20289;-69
2022/12/01 02:54:04;;;;;;;22.90;15.90;;;;;;;;;;5040416;28;20194;-69
2022/12/01 02:56:30;;;;;;;23.83;14.73;;;;;;;;;;5041362;28;20198;-69
2022/12/01 02:58:57;;;;;;;25.27;15.77;;;;;;;;;;5040900;28;20197;-69
2022/12/01 03:01:41;;;;;;;22.35;15.20;;;;;;;;;;5041338;28;20198;-69
2022/12/01 03:04:31;;;;;;;24.05;14.98;;;;;;;;;;5041298;28;20249;-69
2022/12/01 03:07:03;;;;;;;23.70;15.27;;;;;;;;;;5051111;28;20256;-70
2022/12/01 03:09:35;;;;;;;26.20;15.48;;;;;;;;;;5040969;28;20206;-70
2022/12/01 03:12:10;;;;;;;23.70;14.93;;;;;;;;;;5041136;28;20269;-70
2022/12/01 03:14:40;;;;;;;26.85;16.83;;;;;;;;;;5041054;27;20197;-69
2022/12/01 03:17:08;;;;;;;25.75;15.73;;;;;;;;;;5041229;28;20373;-69
2022/12/01 03:19:37;;;;;;;26.05;15.77;;;;;;;;;;5040694;28;20525;-70
2022/12/01 03:22:09;;;;;;;25.00;16.05;;;;;;;;;;5040928;28;20205;-70
2022/12/01 03:24:36;;;;;;;24.95;15.77;;;;;;;;;;5040942;28;20206;-70
2022/12/01 03:27:03;;;;;;;25.65;16.38;;;;;;;;;;5041004;28;20190;-70
2022/12/01 03:29:31;;;;;;;23.77;16.02;;;;;;;;;;5040523;28;20197;-70
2022/12/01 03:32:00;;;;;;;27.40;17.25;;;;;;;;;;5041015;28;20273;-70
2022/12/01 03:34:30;;;;;;;26.20;16.77;;;;;;;;;;5040960;28;20198;-70
2022/12/01 03:36:57;;;;;;;26.00;16.40;;;;;;;;;;5040795;28;20412;-70
2022/12/01 03:39:27;;;;;;;24.40;15.43;;;;;;;;;;5040173;28;20279;-70
2022/12/01 03:41:56;;;;;;;27.58;17.08;;;;;;;;;;5040673;28;20528;-70
2022/12/01 03:44:25;;;;;;;26.45;16.52;;;;;;;;;;5040557;28;20270;-70
2022/12/01 03:46:52;;;;;;;26.23;17.13;;;;;;;;;;5040518;28;20205;-70
2022/12/01 03:49:20;;;;;;;26.60;16.40;;;;;;;;;;5040224;28;20198;-70
2022/12/01 03:51:49;;;;;;;25.73;16.08;;;;;;;;;;5040476;28;20235;-69
2022/12/01 03:54:17;;;;;;;26.35;16.70;;;;;;;;;;5040652;28;20202;-69
2022/12/01 03:56:47;;;;;;;29.13;16.98;;;;;;;;;;5040285;28;20205;-69
2022/12/01 03:59:15;;;;;;;26.27;16.83;;;;;;;;;;5040241;28;20198;-69
2022/12/01 04:01:41;;;;;;;25.50;16.63;;;;;;;;;;5040315;28;20219;-69
2022/12/01 04:04:08;;;;;;;28.48;17.58;;;;;;;;;;5038977;28;20218;-69
2022/12/01 04:06:35;;;;;;;24.25;15.20;;;;;;;;;;5040379;28;20212;-69
2022/12/01 04:09:01;;;;;;;26.00;15.85;;;;;;;;;;5040016;28;20212;-69
2022/12/01 04:14:13;;;;;;;26.08;16.40;;;;;;;;;;5040185;28;20189;-69
2022/12/01 04:16:39;;;;;;;24.60;16.05;;;;;;;;;;5040020;28;20197;-69
2022/12/01 04:19:06;;;;;;;25.58;16.10;;;;;;;;;;5040303;28;20373;-69
2022/12/01 04:21:32;;;;;;;26.85;16.77;;;;;;;;;;5040015;28;20198;-70
2022/12/01 04:24:01;;;;;;;23.25;14.80;;;;;;;;;;5040179;28;20439;-69
2022/12/01 04:26:28;;;;;;;24.52;16.30;;;;;;;;;;5040127;28;20385;-69
2022/12/01 04:28:54;;;;;;;22.58;15.32;;;;;;;;;;5039556;28;20408;-69
2022/12/01 04:31:22;;;;;;;25.60;16.30;;;;;;;;;;5040093;28;20206;-69
2022/12/01 04:33:48;;;;;;;26.67;15.82;;;;;;;;;;5039790;28;20211;-69
2022/12/01 04:36:14;;;;;;;24.95;16.38;;;;;;;;;;5039744;28;20198;-69
2022/12/01 04:38:40;;;;;;;25.30;16.10;;;;;;;;;;5039605;28;20198;-69
2022/12/01 04:41:10;;;;;;;25.63;16.92;;;;;;;;;;5039476;28;20212;-69
2022/12/01 04:43:37;;;;;;;24.38;16.48;;;;;;;;;;5039335;28;20213;-69
2022/12/01 04:46:03;;;;;;;27.27;16.65;;;;;;;;;;5039908;28;20198;-69
2022/12/01 04:48:31;;;;;;;27.52;17.08;;;;;;;;;;5039329;28;20208;-69
2022/12/01 04:50:57;;;;;;;27.10;16.23;;;;;;;;;;5039598;28;20197;-69
2022/12/01 04:53:24;;;;;;;24.45;15.95;;;;;;;;;;5039732;28;20394;-70
2022/12/01 04:55:50;;;;;;;26.05;16.20;;;;;;;;;;5039360;28;20198;-70
2022/12/01 04:58:16;;;;;;;27.38;17.08;;;;;;;;;;5038969;28;20505;-70
2022/12/01 05:00:43;;;;;;;27.45;17.25;;;;;;;;;;5039193;28;20204;-70
2022/12/01 05:03:09;;;;;;;25.60;16.23;;;;;;;;;;5039232;28;20217;-70
2022/12/01 05:05:37;;;;;;;24.10;15.23;;;;;;;;;;5039444;28;20198;-70
2022/12/01 05:08:03;;;;;;;25.48;15.43;;;;;;;;;;5039311;28;20211;-70
2022/12/01 05:10:29;;;;;;;24.63;15.15;;;;;;;;;;5039163;28;20233;-70
2022/12/01 05:12:56;;;;;;;24.27;15.57;;;;;;;;;;5039121;28;20262;-70
2022/12/01 05:15:23;;;;;;;27.27;16.13;;;;;;;;;;5038851;28;20201;-70
2022/12/01 05:17:49;;;;;;;25.95;15.82;;;;;;;;;;5039165;28;20220;-70
2022/12/01 05:23:03;;;;;;;24.48;15.10;;;;;;;;;;5039625;28;20293;-70
2022/12/01 05:25:29;;;;;;;25.33;16.58;;;;;;;;;;5039409;28;20205;-69
2022/12/01 05:27:56;;;;;;;24.33;15.50;;;;;;;;;;5038963;28;20214;-69
2022/12/01 05:30:22;;;;;;;23.88;15.00;;;;;;;;;;5039681;28;20198;-69
2022/12/01 05:32:48;;;;;;;26.02;15.65;;;;;;;;;;5039115;28;20202;-69
2022/12/01 05:35:15;;;;;;;26.33;16.10;;;;;;;;;;5039046;28;20343;-69
2022/12/01 05:37:41;;;;;;;26.17;16.27;;;;;;;;;;5038624;28;20198;-69
2022/12/01 05:40:09;;;;;;;25.05;16.38;;;;;;;;;;5038756;28;20198;-69
2022/12/01 05:42:36;;;;;;;27.40;16.42;;;;;;;;;;5038942;28;20206;-69
2022/12/01 05:45:02;;;;;;;28.00;16.85;;;;;;;;;;5038658;28;20206;-70
2022/12/01 05:47:28;;;;;;;24.42;15.98;;;;;;;;;;5039032;28;20202;-70
2022/12/01 05:49:55;;;;;;;27.27;16.63;;;;;;;;;;5038874;28;20198;-70
2022/12/01 05:52:21;;;;;;;25.35;15.88;;;;;;;;;;5038908;28;20198;-69
2022/12/01 05:54:47;;;;;;;25.25;16.58;;;;;;;;;;5039094;28;20492;-69
2022/12/01 05:57:15;;;;;;;28.30;16.80;;;;;;;;;;5038854;28;20208;-69
2022/12/01 05:59:41;;;;;;;28.17;16.33;;;;;;;;;;5038659;28;20198;-69
2022/12/01 06:02:07;;;;;;;24.45;16.52;;;;;;;;;;5038651;28;20198;-69
2022/12/01 06:04:34;;;;;;;24.05;16.23;;;;;;;;;;5038486;28;20222;-69
2022/12/01 06:07:00;;;;;;;26.65;16.90;;;;;;;;;;5038591;28;20198;-69
2022/12/01 06:09:26;;;;;;;26.42;16.80;;;;;;;;;;5038030;28;20205;-69
2022/12/01 06:11:52;;;;;;;46.40;26.13;;;;;;;;;;5038608;28;20385;-69
2022/12/01 06:14:20;;;;;;;31.17;19.08;;;;;;;;;;5038405;28;20194;-70
2022/12/01 06:16:46;;;;;;;29.13;18.52;;;;;;;;;;5038265;28;20198;-69
2022/12/01 06:19:12;;;;;;;28.23;17.85;;;;;;;;;;5037929;28;20389;-69
2022/12/01 06:21:39;;;;;;;31.70;18.77;;;;;;;;;;5038237;28;20212;-69
2022/12/01 06:24:05;;;;;;;30.38;18.40;;;;;;;;;;5037881;28;20228;-69
2022/12/01 06:26:32;;;;;;;28.40;17.60;;;;;;;;;;5038322;28;20202;-70
2022/12/01 06:28:58;;;;;;;31.60;18.55;;;;;;;;;;5040595;28;20224;-70
2022/12/01 06:31:25;;;;;;;32.30;18.83;;;;;;;;;;5041399;28;20204;-72
2022/12/01 06:33:52;;;;;;;28.63;18.67;;;;;;;;;;5041391;28;20198;-71
2022/12/01 06:36:19;;;;;;;30.40;19.58;;;;;;;;;;5041211;28;20301;-71
2022/12/01 06:38:45;;;;;;;29.83;18.35;;;;;;;;;;5041020;28;20201;-71
2022/12/01 06:41:11;;;;;;;30.77;19.35;;;;;;;;;;5041062;28;20219;-71
2022/12/01 06:43:37;;;;;;;29.77;18.65;;;;;;;;;;5041222;28;20214;-71
2022/12/01 06:46:04;;;;;;;28.60;18.65;;;;;;;;;;5041181;28;20527;-71
2022/12/01 06:48:33;;;;;;;32.08;19.20;;;;;;;;;;5040892;28;20274;-71
2022/12/01 06:50:59;;;;;;;29.23;18.45;;;;;;;;;;5041074;28;20204;-71
2022/12/01 06:53:27;;;;;;;30.08;19.17;;;;;;;;;;5040880;28;20204;-71
2022/12/01 06:55:53;;;;;;;32.97;19.50;;;;;;;;;;5041167;28;20528;-71
2022/12/01 06:58:19;;;;;;;32.42;19.88;;;;;;;;;;5041282;28;20392;-71
2022/12/01 07:00:46;;;;;;;34.95;20.52;;;;;;;;;;5041219;28;20202;-71
2022/12/01 07:03:12;;;;;;;30.50;19.92;;;;;;;;;;5040727;28;20313;-72
2022/12/01 07:05:40;;;;;;;28.05;18.40;;;;;;;;;;5041292;28;20232;-72
2022/12/01 07:08:06;;;;;;;29.83;18.95;;;;;;;;;;5040747;28;20469;-72
2022/12/01 07:10:32;;;;;;;31.90;19.33;;;;;;;;;;5040887;28;20550;-72
2022/12/01 07:12:59;;;;;;;29.33;18.65;;;;;;;;;;5040755;28;20212;-71
2022/12/01 07:15:27;;;;;;;28.48;18.58;;;;;;;;;;5040547;28;20198;-71
2022/12/01 07:17:53;;;;;;;30.35;19.15;;;;;;;;;;5040607;28;20212;-71
2022/12/01 07:20:20;;;;;;;34.78;20.10;;;;;;;;;;5040647;28;20205;-71
2022/12/01 07:22:47;;;;;;;31.35;19.83;;;;;;;;;;5040747;28;20202;-71
2022/12/01 07:25:14;;;;;;;31.13;18.92;;;;;;;;;;5040478;28;20218;-71
2022/12/01 07:27:40;;;;;;;34.38;21.35;;;;;;;;;;5040223;28;20218;-72
2022/12/01 07:30:07;;;;;;;32.95;19.88;;;;;;;;;;5040693;28;20198;-72
2022/12/01 07:32:33;;;;;;;29.48;19.90;;;;;;;;;;5040419;28;20197;-71
2022/12/01 07:34:59;;;;;;;28.58;19.02;;;;;;;;;;5040655;28;20194;-71
2022/12/01 07:37:26;;;;;;;32.88;19.13;;;;;;;;;;5040487;28;20220;-72
2022/12/01 07:39:53;;;;;;;33.72;19.95;;;;;;;;;;5040170;28;20213;-72
2022/12/01 07:42:19;;;;;;;36.80;20.50;;;;;;;;;;5040339;28;20204;-72
2022/12/01 07:44:46;;;;;;;31.67;19.70;;;;;;;;;;5040747;28;20222;-71
2022/12/01 07:47:12;;;;;;;32.13;19.33;;;;;;;;;;5040615;28;20206;-71
2022/12/01 07:49:38;;;;;;;32.17;18.67;;;;;;;;;;5040324;28;20447;-71
2022/12/01 07:52:05;;;;;;;30.77;19.30;;;;;;;;;;5040384;28;20198;-71
2022/12/01 07:54:31;;;;;;;31.30;19.45;;;;;;;;;;5040246;28;20194;-71
2022/12/01 07:56:59;;;;;;;34.08;20.15;;;;;;;;;;5040074;28;20400;-71
2022/12/01 07:59:25;;;;;;;29.55;19.52;;;;;;;;;;5039737;28;20202;-71
2022/12/01 08:01:51;;;;;;;29.23;19.42;;;;;;;;;;5039971;28;20497;-71
2022/12/01 08:04:17;;;;;;;28.63;19.08;;;;;;;;;;5039885;28;20218;-71
2022/12/01 08:06:44;;;;;;;31.20;19.90;;;;;;;;;;5040492;28;20494;-71
2022/12/01 08:09:10;;;;;;;30.08;19.85;;;;;;;;;;5039998;28;20198;-71
2022/12/01 08:11:36;;;;;;;31.10;19.65;;;;;;;;;;5039775;28;20198;-71
2022/12/01 08:14:04;;;;;;;34.25;20.27;;;;;;;;;;5039948;28;20216;-71
2022/12/01 08:16:30;;;;;;;32.70;20.90;;;;;;;;;;5040105;28;20423;-71
2022/12/01 08:18:57;;;;;;;33.85;20.98;;;;;;;;;;5039679;28;20197;-71
2022/12/01 08:21:24;;;;;;;32.67;20.80;;;;;;;;;;5039685;28;20285;-71
2022/12/01 08:23:52;;;;;;;32.80;20.75;;;;;;;;;;5039796;28;20228;-72
2022/12/01 08:26:19;;;;;;;30.52;19.63;;;;;;;;;;5039631;28;20198;-72
2022/12/01 08:28:46;;;;;;;33.72;21.05;;;;;;;;;;5039382;28;20226;-72
2022/12/01 08:31:15;;;;;;;30.50;20.38;;;;;;;;;;5040230;28;20198;-71
2022/12/01 08:33:41;;;;;;;30.23;20.23;;;;;;;;;;5039617;28;20194;-71
2022/12/01 08:36:08;;;;;;;49.20;25.52;;;;;;;;;;5039688;28;20198;-71
2022/12/01 08:38:34;;;;;;;36.30;21.23;;;;;;;;;;5039417;28;20208;-72
2022/12/01 08:41:01;;;;;;;34.40;22.40;;;;;;;;;;5039630;28;20198;-72
2022/12/01 08:43:27;;;;;;;35.75;22.10;;;;;;;;;;5039700;28;20205;-72
2022/12/01 08:45:53;;;;;;;35.58;22.13;;;;;;;;;;5039841;28;20198;-72
2022/12/01 08:48:22;;;;;;;32.90;19.63;;;;;;;;;;5039846;27;20561;-72
2022/12/01 08:50:48;;;;;;;31.20;19.98;;;;;;;;;;5039162;28;20202;-72
2022/12/01 08:53:14;;;;;;;32.67;20.27;;;;;;;;;;5039306;28;20197;-72
2022/12/01 08:55:41;;;;;;;37.67;20.25;;;;;;;;;;5039874;28;20393;-69
2022/12/01 08:58:07;;;;;;;31.15;20.33;;;;;;;;;;5039240;28;20267;-70
2022/12/01 09:00:33;;;;;;;37.22;21.40;;;;;;;;;;5039710;28;20204;-70
2022/12/01 09:03:00;;;;;;;33.03;20.42;;;;;;;;;;5039283;28;20373;-70
2022/12/01 09:05:28;;;;;;;32.97;20.92;;;;;;;;;;5036542;28;20409;-59
2022/12/01 09:10:34;;;;;;;32.50;19.70;;;;;;;;;;5025904;28;20209;-59
2022/12/01 09:13:00;;;;;;;32.60;20.52;;;;;;;;;;5033212;28;20217;-59
2022/12/01 09:15:27;;;;;;;29.75;19.23;;;;;;;;;;5033682;28;20216;-59
2022/12/01 09:17:53;;;;;;;35.72;19.77;;;;;;;;;;5033323;28;20216;-59
2022/12/01 09:20:20;;;;;;;32.15;20.15;;;;;;;;;;5033417;28;20216;-57
2022/12/01 09:22:47;;;;;;;35.28;22.17;;;;;;;;;;5033330;28;20214;-57
2022/12/01 09:25:14;;;;;;;33.63;20.92;;;;;;;;;;5033031;28;20221;-56
2022/12/01 09:27:40;;;;;;;31.67;20.08;;;;;;;;;;5029756;28;20572;-57
2022/12/01 09:30:07;;;;;;;34.10;20.90;;;;;;;;;;5031115;28;20206;-57
2022/12/01 09:32:33;;;;;;;30.77;20.20;;;;;;;;;;5028295;28;20744;-57
2022/12/01 09:35:00;;;;;;;29.27;19.55;;;;;;;;;;5031356;28;20243;-57
2022/12/01 09:37:26;;;;;;;32.60;20.10;;;;;;;;;;5029825;28;20398;-57
2022/12/01 09:39:54;;;;;;;29.13;19.83;;;;;;;;;;5031078;28;20228;-57
2022/12/01 09:42:26;;;;;;;33.75;21.08;;;;;;;;;;5031678;28;20529;-57
2022/12/01 09:44:53;;;;;;;33.95;20.55;;;;;;;;;;5030922;28;20240;-57
2022/12/01 09:47:20;;;;;;;31.08;19.70;;;;;;;;;;5030497;28;20290;-57
2022/12/01 09:49:50;;;;;;;30.08;19.73;;;;;;;;;;5030869;28;20252;-57
2022/12/01 09:52:17;;;;;;;31.85;19.35;;;;;;;;;;5030845;28;20205;-56
2022/12/01 09:54:44;;;;;;;31.50;19.95;;;;;;;;;;5031249;28;20209;-57
2022/12/01 09:57:15;;;;;;;30.90;20.15;;;;;;;;;;5030171;28;20210;-57
2022/12/01 09:59:42;;;;;;;31.23;20.27;;;;;;;;;;5029973;28;20213;-57
2022/12/01 10:02:19;;;;;;;34.42;20.95;;;;;;;;;;5031246;28;20210;-57
2022/12/01 10:04:47;;;;;;;28.92;19.27;;;;;;;;;;5034623;28;20240;-57
2022/12/01 10:07:17;;;;;;;31.92;20.02;;;;;;;;;;5034752;28;20214;-58
2022/12/01 10:09:46;;;;;;;33.83;21.10;;;;;;;;;;5035125;28;20213;-57
2022/12/01 10:12:14;;;;;;;29.50;19.77;;;;;;;;;;5034989;28;20212;-57
2022/12/01 10:14:43;;;;;;;32.10;20.08;;;;;;;;;;5034296;28;20490;-57
2022/12/01 10:17:15;;;;;;;31.60;19.70;;;;;;;;;;5026612;28;20213;-57
2022/12/01 10:19:45;;;;;;;29.38;19.63;;;;;;;;;;5034037;28;20209;-57
2022/12/01 10:22:20;;;;;;;32.35;19.98;;;;;;;;;;5034537;28;20214;-57
2022/12/01 10:24:53;;;;;;;33.53;20.75;;;;;;;;;;5034326;28;20576;-59
2022/12/01 10:27:25;;;;;;;29.80;19.73;;;;;;;;;;5033621;28;20465;-57
2022/12/01 10:29:58;;;;;;;32.25;20.95;;;;;;;;;;5031840;28;20441;-56
2022/12/01 10:32:35;;;;;;;29.50;19.60;;;;;;;;;;5033296;28;20229;-58
2022/12/01 10:35:01;;;;;;;28.90;19.85;;;;;;;;;;5034039;28;20382;-57
2022/12/01 10:37:28;;;;;;;30.92;19.50;;;;;;;;;;5032963;28;20282;-56
2022/12/01 10:39:56;;;;;;;31.15;19.88;;;;;;;;;;5033403;28;20245;-57
2022/12/01 10:42:26;;;;;;;28.48;19.27;;;;;;;;;;5034327;28;20218;-57
2022/12/01 10:44:54;;;;;;;30.60;19.52;;;;;;;;;;5033814;28;20444;-57
2022/12/01 10:47:22;;;;;;;29.50;18.60;;;;;;;;;;5033363;28;20224;-57
2022/12/01 10:49:48;;;;;;;30.23;18.70;;;;;;;;;;5033629;28;20214;-57
2022/12/01 10:52:31;;;;;;;29.02;19.48;;;;;;;;;;5033539;28;20218;-57
2022/12/01 10:54:57;;;;;;;30.85;18.65;;;;;;;;;;5034002;28;20533;-58
2022/12/01 10:57:25;;;;;;;28.13;18.73;;;;;;;;;;5033748;28;20224;-57
2022/12/01 10:59:52;;;;;;;29.83;19.73;;;;;;;;;;5033804;28;20715;-58
2022/12/01 11:02:21;;;;;;;27.67;18.08;;;;;;;;;;5033666;28;20210;-57
2022/12/01 11:04:51;;;;;;;30.25;19.02;;;;;;;;;;5033732;28;20225;-57
2022/12/01 11:07:19;;;;;;;30.63;18.42;;;;;;;;;;5033278;28;20214;-57
2022/12/01 11:09:46;;;;;;;28.90;19.25;;;;;;;;;;5032672;28;20228;-57
2022/12/01 11:12:14;;;;;;;31.80;20.00;;;;;;;;;;5033932;28;20214;-56
2022/12/01 11:14:43;;;;;;;29.67;18.75;;;;;;;;;;5033064;28;20241;-56
2022/12/01 11:17:17;;;;;;;29.70;18.73;;;;;;;;;;5033633;28;20220;-60
2022/12/01 11:19:45;;;;;;;29.13;18.77;;;;;;;;;;5032320;28;20222;-57
2022/12/01 11:22:19;;;;;;;30.23;18.73;;;;;;;;;;5032969;28;20220;-57
2022/12/01 11:24:55;;;;;;;28.45;18.55;;;;;;;;;;5032754;28;20217;-56
2022/12/01 11:27:23;;;;;;;29.30;18.60;;;;;;;;;;5032391;28;20214;-57
2022/12/01 11:29:50;;;;;;;28.45;18.77;;;;;;;;;;5032942;28;20450;-57
2022/12/01 11:32:18;;;;;;;27.60;18.50;;;;;;;;;;5032267;28;20214;-56
2022/12/01 11:34:50;;;;;;;26.40;17.33;;;;;;;;;;5033138;28;20209;-55
2022/12/01 11:37:17;;;;;;;28.00;18.52;;;;;;;;;;5032692;28;20481;-57
2022/12/01 11:39:44;;;;;;;27.05;17.58;;;;;;;;;;5033360;28;20220;-57
2022/12/01 11:42:16;;;;;;;29.13;18.48;;;;;;;;;;5033346;28;20210;-55
2022/12/01 11:44:47;;;;;;;28.73;18.23;;;;;;;;;;5033180;28;20278;-59
2022/12/01 11:47:14;;;;;;;27.52;18.58;;;;;;;;;;5033232;28;20394;-59
2022/12/01 11:49:42;;;;;;;29.92;18.63;;;;;;;;;;5032570;28;20320;-59
2022/12/01 11:52:18;;;;;;;27.48;17.92;;;;;;;;;;5033413;28;20220;-60
2022/12/01 11:54:54;;;;;;;30.77;17.30;;;;;;;;;;5032739;28;20210;-57
2022/12/01 11:57:20;;;;;;;27.35;17.98;;;;;;;;;;5032635;28;20568;-56
2022/12/01 11:59:47;;;;;;;26.95;17.70;;;;;;;;;;5032135;28;20216;-57
2022/12/01 12:02:22;;;;;;;27.95;17.73;;;;;;;;;;5032033;28;20547;-57
2022/12/01 12:04:58;;;;;;;25.92;17.00;;;;;;;;;;5032954;28;20510;-57
2022/12/01 12:07:30;;;;;;;26.13;17.30;;;;;;;;;;5032333;28;20451;-57
2022/12/01 12:10:03;;;;;;;27.00;17.48;;;;;;;;;;5032428;28;20213;-57
2022/12/01 12:12:35;;;;;;;26.52;16.63;;;;;;;;;;5033039;28;20396;-59
2022/12/01 12:15:07;;;;;;;27.83;17.52;;;;;;;;;;5032152;28;20256;-57
2022/12/01 12:17:43;;;;;;;27.65;17.13;;;;;;;;;;5032586;28;20221;-56
2022/12/01 12:20:30;;;;;;;29.80;18.02;;;;;;;;;;5032908;28;20444;-57
2022/12/01 12:23:04;;;;;;;24.40;17.17;;;;;;;;;;5027587;28;20221;-56
2022/12/01 12:25:37;;;;;;;28.27;17.92;;;;;;;;;;5032240;28;20236;-57
2022/12/01 12:28:13;;;;;;;26.48;18.35;;;;;;;;;;5031961;28;20607;-54
2022/12/01 12:30:42;;;;;;;27.95;17.55;;;;;;;;;;5032425;28;20213;-57
2022/12/01 12:33:18;;;;;;;25.73;16.63;;;;;;;;;;5032499;28;20205;-59
2022/12/01 12:35:46;;;;;;;25.73;17.05;;;;;;;;;;5032961;28;20212;-59
2022/12/01 12:38:23;;;;;;;23.90;15.80;;;;;;;;;;5031714;28;20216;-59
2022/12/01 12:40:52;;;;;;;25.63;17.42;;;;;;;;;;5028470;28;20213;-59
2022/12/01 12:43:23;;;;;;;26.83;18.17;;;;;;;;;;5032759;28;20278;-58
2022/12/01 12:46:04;;;;;;;25.20;17.33;;;;;;;;;;5031761;28;20426;-56
2022/12/01 12:48:43;;;;;;;25.90;17.08;;;;;;;;;;5032274;28;20221;-57
2022/12/01 12:51:13;;;;;;;24.98;16.48;;;;;;;;;;5032883;28;20216;-57
2022/12/01 12:53:47;;;;;;;26.02;17.20;;;;;;;;;;5032160;28;20228;-57
2022/12/01 12:56:15;;;;;;;26.55;16.50;;;;;;;;;;5032930;28;20224;-57
2022/12/01 12:58:43;;;;;;;25.08;16.40;;;;;;;;;;5032186;28;20220;-57
2022/12/01 13:01:12;;;;;;;25.65;17.00;;;;;;;;;;5032025;28;20209;-57
2022/12/01 13:03:49;;;;;;;25.73;16.85;;;;;;;;;;5031966;28;20257;-57
2022/12/01 13:06:18;;;;;;;24.15;16.73;;;;;;;;;;5032428;28;20233;-57
2022/12/01 13:08:47;;;;;;;24.45;17.02;;;;;;;;;;5031196;28;20227;-57
2022/12/01 13:11:15;;;;;;;27.15;17.00;;;;;;;;;;5031777;28;20213;-59
2022/12/01 13:13:45;;;;;;;27.27;16.50;;;;;;;;;;5032856;28;20210;-59
2022/12/01 13:16:12;;;;;;;26.42;16.38;;;;;;;;;;5031827;28;20405;-58
2022/12/01 13:18:40;;;;;;;24.85;17.38;;;;;;;;;;5031816;28;20217;-58
2022/12/01 13:21:07;;;;;;;29.88;18.88;;;;;;;;;;5032494;28;20209;-58
2022/12/01 13:23:34;;;;;;;25.67;16.23;;;;;;;;;;5032261;28;20444;-56
2022/12/01 13:26:04;;;;;;;25.20;16.20;;;;;;;;;;5027644;28;20242;-56
2022/12/01 13:28:41;;;;;;;26.40;16.83;;;;;;;;;;5013038;28;20226;-59
2022/12/01 13:31:08;;;;;;;28.33;16.27;;;;;;;;;;5013863;28;20236;-57
2022/12/01 13:33:35;;;;;;;23.85;16.85;;;;;;;;;;5013879;28;20210;-58
2022/12/01 13:36:02;;;;;;;25.08;16.58;;;;;;;;;;5013508;28;20206;-58
2022/12/01 13:38:29;;;;;;;23.17;16.73;;;;;;;;;;5032831;28;20513;-57
2022/12/01 13:41:11;;;;;;;24.65;16.83;;;;;;;;;;5036795;28;20209;-57
2022/12/01 13:43:37;;;;;;;32.80;17.35;;;;;;;;;;5036740;28;20214;-57
2022/12/01 13:46:04;;;;;;;29.27;17.30;;;;;;;;;;5036720;28;20229;-58
2022/12/01 13:48:49;;;;;;;23.73;16.63;;;;;;;;;;5036428;28;20209;-58
2022/12/01 13:51:15;;;;;;;24.58;16.27;;;;;;;;;;5036496;28;20227;-58
2022/12/01 13:53:52;;;;;;;26.50;16.58;;;;;;;;;;5036262;28;20221;-58
2022/12/01 13:56:26;;;;;;;24.65;15.73;;;;;;;;;;5036021;28;20206;-60
2022/12/01 13:58:53;;;;;;;24.50;16.48;;;;;;;;;;5036143;28;20827;-60
2022/12/01 14:01:38;;;;;;;23.88;16.17;;;;;;;;;;5036134;28;20214;-60
2022/12/01 14:04:21;;;;;;;25.95;17.23;;;;;;;;;;5035059;28;20387;-58
2022/12/01 14:06:49;;;;;;;25.02;16.75;;;;;;;;;;5039226;28;20226;-57
2022/12/01 14:09:17;;;;;;;26.75;17.25;;;;;;;;;;5035926;28;20210;-58
2022/12/01 14:11:54;;;;;;;26.13;16.58;;;;;;;;;;5036457;28;20218;-57
2022/12/01 14:14:22;;;;;;;30.73;17.77;;;;;;;;;;5036380;28;20406;-57
2022/12/01 14:16:49;;;;;;;25.98;16.63;;;;;;;;;;5035595;28;20400;-58
2022/12/01 14:19:26;;;;;;;24.08;16.27;;;;;;;;;;5035899;28;20217;-58
2022/12/01 14:21:52;;;;;;;24.15;16.15;;;;;;;;;;5036603;28;20205;-58
2022/12/01 14:24:21;;;;;;;24.55;16.42;;;;;;;;;;5036363;28;20417;-58
2022/12/01 14:26:50;;;;;;;23.52;15.48;;;;;;;;;;5034874;28;20575;-58
2022/12/01 14:29:30;;;;;;;26.02;17.45;;;;;;;;;;5035900;28;20234;-58
2022/12/01 14:32:20;;;;;;;25.92;16.73;;;;;;;;;;5036270;28;20217;-57
2022/12/01 14:34:50;;;;;;;29.65;16.58;;;;;;;;;;5035938;28;20450;-58